Time,TemperatureF,DewpointF,PressureIn,WindDirection,WindDirectionDegrees,WindSpeedMPH,WindSpeedGustMPH,Humidity,HourlyPrecipIn,Conditions,Clouds,dailyrainin,SoftwareType,DateUTC
2013-10-29 00:10:00,45.5,43.0,29.77,North,-999,-999.0,-999.0,91,-99.99,,,0.00,weatherlink.com 1.10,2013-10-29 07:10:00,
2013-10-29 00:25:00,45.2,43.0,29.77,North,-999,-999.0,-999.0,91,-99.99,,,0.00,weatherlink.com 1.10,2013-10-29 07:25:00,
2013-10-29 00:40:00,44.9,43.0,29.77,North,-999,-999.0,-999.0,91,-99.99,,,0.00,weatherlink.com 1.10,2013-10-29 07:40:00,
2013-10-29 00:55:00,44.9,43.0,29.78,North,-999,-999.0,-999.0,91,-99.99,,,0.00,weatherlink.com 1.10,2013-10-29 07:55:00,
2013-10-29 01:10:00,44.5,42.0,29.79,North,-999,-999.0,-999.0,91,-99.99,,,0.00,weatherlink.com 1.10,2013-10-29 08:10:00,
2013-10-29 01:26:00,44.4,42.0,29.79,North,-999,-999.0,-999.0,92,-99.99,,,0.00,weatherlink.com 1.10,2013-10-29 08:26:00,
2013-10-29 01:41:00,44.3,42.0,29.80,North,-999,-999.0,-999.0,92,-99.99,,,0.00,weatherlink.com 1.10,2013-10-29 08:41:00,
2013-10-29 01:56:00,44.1,42.0,29.80,North,-999,-999.0,-999.0,92,-99.99,,,0.00,weatherlink.com 1.10,2013-10-29 08:56:00,
2013-10-29 02:11:00,44.1,42.0,29.80,North,-999,-999.0,-999.0,92,-99.99,,,0.00,weatherlink.com 1.10,2013-10-29 09:11:00,
2013-10-29 02:25:00,43.9,42.0,29.81,North,-999,-999.0,-999.0,92,-99.99,,,0.00,weatherlink.com 1.10,2013-10-29 09:25:00,
2013-10-29 02:40:00,43.6,42.0,29.81,North,-999,-999.0,-999.0,92,-99.99,,,0.00,weatherlink.com 1.10,2013-10-29 09:40:00,
2013-10-29 02:55:00,43.6,42.0,29.81,North,-999,-999.0,-999.0,92,-99.99,,,0.00,weatherlink.com 1.10,2013-10-29 09:55:00,
2013-10-29 03:10:00,43.6,42.0,29.81,North,-999,-999.0,-999.0,93,-99.99,,,0.00,weatherlink.com 1.10,2013-10-29 10:10:00,
2013-10-29 03:25:00,43.6,42.0,29.81,North,-999,-999.0,-999.0,93,-99.99,,,0.00,weatherlink.com 1.10,2013-10-29 10:25:00,
2013-10-29 03:40:00,43.4,42.0,29.81,North,-999,-999.0,-999.0,93,-99.99,,,0.00,weatherlink.com 1.10,2013-10-29 10:40:00,
2013-10-29 03:55:00,43.5,42.0,29.81,North,-999,-999.0,-999.0,93,-99.99,,,0.00,weatherlink.com 1.10,2013-10-29 10:55:00,
2013-10-29 04:10:00,43.2,41.0,29.82,North,-999,-999.0,-999.0,93,-99.99,,,0.00,weatherlink.com 1.10,2013-10-29 11:10:00,
2013-10-29 04:25:00,43.1,41.0,29.82,North,-999,-999.0,-999.0,93,-99.99,,,0.00,weatherlink.com 1.10,2013-10-29 11:25:00,
2013-10-29 04:40:00,43.4,42.0,29.82,North,-999,-999.0,-999.0,94,-99.99,,,0.00,weatherlink.com 1.10,2013-10-29 11:40:00,
2013-10-29 04:55:00,43.8,42.0,29.83,North,-999,-999.0,-999.0,93,-99.99,,,0.00,weatherlink.com 1.10,2013-10-29 11:55:00,
2013-10-29 05:10:00,43.4,42.0,29.83,North,-999,-999.0,-999.0,93,-99.99,,,0.00,weatherlink.com 1.10,2013-10-29 12:10:00,
2013-10-29 05:25:00,43.4,42.0,29.84,North,-999,-999.0,-999.0,93,-99.99,,,0.00,weatherlink.com 1.10,2013-10-29 12:25:00,
2013-10-29 05:40:00,43.1,41.0,29.84,North,-999,-999.0,-999.0,93,-99.99,,,0.00,weatherlink.com 1.10,2013-10-29 12:40:00,
2013-10-29 05:55:00,42.9,41.0,29.85,North,-999,-999.0,-999.0,94,-99.99,,,0.00,weatherlink.com 1.10,2013-10-29 12:55:00,
2013-10-29 06:10:00,43.1,42.0,29.85,North,-999,-999.0,-999.0,94,-99.99,,,0.00,weatherlink.com 1.10,2013-10-29 13:10:00,
2013-10-29 06:25:00,43.6,42.0,29.85,North,-999,-999.0,-999.0,94,-99.99,,,0.00,weatherlink.com 1.10,2013-10-29 13:25:00,
2013-10-29 06:40:00,43.7,42.0,29.85,North,-999,-999.0,-999.0,94,-99.99,,,0.00,weatherlink.com 1.10,2013-10-29 13:40:00,
2013-10-29 06:55:00,43.6,42.0,29.85,North,-999,-999.0,-999.0,94,-99.99,,,0.00,weatherlink.com 1.10,2013-10-29 13:55:00,
2013-10-29 07:10:00,43.2,41.0,29.86,North,-999,-999.0,-999.0,93,-99.99,,,0.00,weatherlink.com 1.10,2013-10-29 14:10:00,
2013-10-29 07:25:00,42.9,41.0,29.87,North,-999,-999.0,-999.0,94,-99.99,,,0.00,weatherlink.com 1.10,2013-10-29 14:25:00,
2013-10-29 07:40:00,42.9,41.0,29.87,North,-999,-999.0,-999.0,94,-99.99,,,0.00,weatherlink.com 1.10,2013-10-29 14:40:00,
2013-10-29 07:55:00,43.0,41.0,29.88,North,-999,-999.0,-999.0,94,-99.99,,,0.00,weatherlink.com 1.10,2013-10-29 14:55:00,
2013-10-29 08:10:00,43.4,42.0,29.88,North,-999,-999.0,-999.0,94,-99.99,,,0.00,weatherlink.com 1.10,2013-10-29 15:10:00,
2013-10-29 08:25:00,43.8,42.0,29.88,North,-999,-999.0,-999.0,94,-99.99,,,0.00,weatherlink.com 1.10,2013-10-29 15:25:00,
2013-10-29 08:41:00,44.3,43.0,29.88,North,-999,-999.0,-999.0,94,-99.99,,,0.00,weatherlink.com 1.10,2013-10-29 15:41:00,
2013-10-29 08:56:00,45.3,44.0,29.89,North,-999,-999.0,-999.0,95,-99.99,,,0.00,weatherlink.com 1.10,2013-10-29 15:56:00,
2013-10-29 09:10:00,48.0,47.0,29.91,North,-999,-999.0,-999.0,96,-99.99,,,0.00,weatherlink.com 1.10,2013-10-29 16:10:00,
2013-10-29 09:26:00,50.9,50.0,29.91,North,-999,-999.0,-999.0,96,-99.99,,,0.00,weatherlink.com 1.10,2013-10-29 16:26:00,
2013-10-29 09:41:00,51.4,49.0,29.91,SSE,165,0.0,-999.0,92,-99.99,,,0.00,weatherlink.com 1.10,2013-10-29 16:41:00,
2013-10-29 09:56:00,52.6,50.0,29.92,South,180,1.0,-999.0,89,-99.99,,,0.00,weatherlink.com 1.10,2013-10-29 16:56:00,
2013-10-29 10:11:00,54.6,50.0,29.92,South,188,5.0,-999.0,85,-99.99,,,0.00,weatherlink.com 1.10,2013-10-29 17:11:00,
2013-10-29 10:26:00,54.5,49.0,29.93,WSW,255,3.0,-999.0,81,-99.99,,,0.00,weatherlink.com 1.10,2013-10-29 17:26:00,
2013-10-29 10:41:00,53.3,49.0,29.93,WSW,253,2.0,-999.0,84,-99.99,,,0.00,weatherlink.com 1.10,2013-10-29 17:41:00,
2013-10-29 10:56:00,53.5,49.0,29.93,WSW,246,3.0,-999.0,85,-99.99,,,0.00,weatherlink.com 1.10,2013-10-29 17:56:00,
2013-10-29 11:11:00,56.1,51.0,29.93,SW,229,4.0,-999.0,83,-99.99,,,0.00,weatherlink.com 1.10,2013-10-29 18:11:00,
2013-10-29 11:26:00,56.5,51.0,29.93,SSW,196,4.0,-999.0,82,-99.99,,,0.00,weatherlink.com 1.10,2013-10-29 18:26:00,
2013-10-29 11:40:00,57.2,50.0,29.93,SSW,209,6.0,-999.0,78,-99.99,,,0.00,weatherlink.com 1.10,2013-10-29 18:40:00,
2013-10-29 11:55:00,56.3,50.0,29.94,SSW,205,3.0,-999.0,78,-99.99,,,0.00,weatherlink.com 1.10,2013-10-29 18:55:00,
2013-10-29 12:07:00,-999.0,-99.9,0.00,North,-999,-999.0,-999.0,-999,-99.99,,,0.00,weatherlink.com 1.10,2013-10-29 19:07:00,
2013-10-29 12:19:00,-999.0,-99.9,0.00,North,-999,-999.0,-999.0,-999,-99.99,,,0.00,weatherlink.com 1.10,2013-10-29 19:19:00,
2013-10-29 12:34:00,-999.0,-99.9,0.00,North,-999,-999.0,-999.0,-999,-99.99,,,0.00,weatherlink.com 1.10,2013-10-29 19:34:00,
2013-10-29 12:49:00,-999.0,-99.9,0.00,North,-999,-999.0,-999.0,-999,-99.99,,,0.00,weatherlink.com 1.10,2013-10-29 19:49:00,
2013-10-29 13:04:00,-999.0,-99.9,0.00,North,-999,-999.0,-999.0,-999,-99.99,,,0.00,weatherlink.com 1.10,2013-10-29 20:04:00,
2013-10-29 13:19:00,-999.0,-99.9,0.00,North,-999,-999.0,-999.0,-999,-99.99,,,0.00,weatherlink.com 1.10,2013-10-29 20:19:00,
2013-10-29 13:34:00,-999.0,-99.9,0.00,North,-999,-999.0,-999.0,-999,-99.99,,,0.00,weatherlink.com 1.10,2013-10-29 20:34:00,
2013-10-29 13:49:00,-999.0,-99.9,0.00,North,-999,-999.0,-999.0,-999,-99.99,,,0.00,weatherlink.com 1.10,2013-10-29 20:49:00,
2013-10-29 14:04:00,-999.0,-99.9,0.00,North,-999,-999.0,-999.0,-999,-99.99,,,0.00,weatherlink.com 1.10,2013-10-29 21:04:00,
2013-10-29 14:19:00,-999.0,-99.9,0.00,North,-999,-999.0,-999.0,-999,-99.99,,,0.00,weatherlink.com 1.10,2013-10-29 21:19:00,
2013-10-29 14:34:00,-999.0,-99.9,0.00,North,-999,-999.0,-999.0,-999,-99.99,,,0.00,weatherlink.com 1.10,2013-10-29 21:34:00,
2013-10-29 14:49:00,-999.0,-99.9,0.00,North,-999,-999.0,-999.0,-999,-99.99,,,0.00,weatherlink.com 1.10,2013-10-29 21:49:00,
2013-10-29 15:04:00,-999.0,-99.9,0.00,North,-999,-999.0,-999.0,-999,-99.99,,,0.00,weatherlink.com 1.10,2013-10-29 22:04:00,
2013-10-29 15:19:00,-999.0,-99.9,0.00,North,-999,-999.0,-999.0,-999,-99.99,,,0.00,weatherlink.com 1.10,2013-10-29 22:19:00,
2013-10-29 15:34:00,-999.0,-99.9,0.00,North,-999,-999.0,-999.0,-999,-99.99,,,0.00,weatherlink.com 1.10,2013-10-29 22:34:00,
2013-10-29 15:49:00,-999.0,-99.9,0.00,North,-999,-999.0,-999.0,-999,-99.99,,,0.00,weatherlink.com 1.10,2013-10-29 22:49:00,
2013-10-29 16:04:00,-999.0,-99.9,0.00,North,-999,-999.0,-999.0,-999,-99.99,,,0.00,weatherlink.com 1.10,2013-10-29 23:04:00,
2013-10-29 16:19:00,-999.0,-99.9,0.00,North,-999,-999.0,-999.0,-999,-99.99,,,0.00,weatherlink.com 1.10,2013-10-29 23:19:00,
2013-10-29 16:34:00,-999.0,-99.9,0.00,North,-999,-999.0,-999.0,-999,-99.99,,,0.00,weatherlink.com 1.10,2013-10-29 23:34:00,
2013-10-29 16:49:00,-999.0,-99.9,0.00,North,-999,-999.0,-999.0,-999,-99.99,,,0.00,weatherlink.com 1.10,2013-10-29 23:49:00,
2013-10-29 17:04:00,-999.0,-99.9,0.00,North,-999,-999.0,-999.0,-999,-99.99,,,0.00,weatherlink.com 1.10,2013-10-30 00:04:00,
2013-10-29 17:19:00,-999.0,-99.9,0.00,North,-999,-999.0,-999.0,-999,-99.99,,,0.00,weatherlink.com 1.10,2013-10-30 00:19:00,
2013-10-29 17:34:00,-999.0,-99.9,0.00,North,-999,-999.0,-999.0,-999,-99.99,,,0.00,weatherlink.com 1.10,2013-10-30 00:34:00,
2013-10-29 17:49:00,-999.0,-99.9,0.00,North,-999,-999.0,-999.0,-999,-99.99,,,0.00,weatherlink.com 1.10,2013-10-30 00:49:00,
2013-10-29 18:04:00,-999.0,-99.9,0.00,North,-999,-999.0,-999.0,-999,-99.99,,,0.00,weatherlink.com 1.10,2013-10-30 01:04:00,
2013-10-29 18:19:00,-999.0,-99.9,0.00,North,-999,-999.0,-999.0,-999,-99.99,,,0.00,weatherlink.com 1.10,2013-10-30 01:19:00,
2013-10-29 18:34:00,-999.0,-99.9,0.00,North,-999,-999.0,-999.0,-999,-99.99,,,0.00,weatherlink.com 1.10,2013-10-30 01:34:00,
2013-10-29 18:49:00,-999.0,-99.9,0.00,North,-999,-999.0,-999.0,-999,-99.99,,,0.00,weatherlink.com 1.10,2013-10-30 01:49:00,
2013-10-29 19:04:00,-999.0,-99.9,0.00,North,-999,-999.0,-999.0,-999,-99.99,,,0.00,weatherlink.com 1.10,2013-10-30 02:04:00,
2013-10-29 19:19:00,-999.0,-99.9,0.00,North,-999,-999.0,-999.0,-999,-99.99,,,0.00,weatherlink.com 1.10,2013-10-30 02:19:00,
2013-10-29 19:34:00,-999.0,-99.9,0.00,North,-999,-999.0,-999.0,-999,-99.99,,,0.00,weatherlink.com 1.10,2013-10-30 02:34:00,
2013-10-29 19:49:00,-999.0,-99.9,0.00,North,-999,-999.0,-999.0,-999,-99.99,,,0.00,weatherlink.com 1.10,2013-10-30 02:49:00,
2013-10-29 20:04:00,-999.0,-99.9,0.00,North,-999,-999.0,-999.0,-999,-99.99,,,0.00,weatherlink.com 1.10,2013-10-30 03:04:00,
2013-10-29 20:19:00,-999.0,-99.9,0.00,North,-999,-999.0,-999.0,-999,-99.99,,,0.00,weatherlink.com 1.10,2013-10-30 03:19:00,
2013-10-29 20:34:00,-999.0,-99.9,0.00,North,-999,-999.0,-999.0,-999,-99.99,,,0.00,weatherlink.com 1.10,2013-10-30 03:34:00,
2013-10-29 20:49:00,-999.0,-99.9,0.00,North,-999,-999.0,-999.0,-999,-99.99,,,0.00,weatherlink.com 1.10,2013-10-30 03:49:00,
2013-10-29 21:04:00,-999.0,-99.9,0.00,North,-999,-999.0,-999.0,-999,-99.99,,,0.00,weatherlink.com 1.10,2013-10-30 04:04:00,
2013-10-29 21:19:00,-999.0,-99.9,0.00,North,-999,-999.0,-999.0,-999,-99.99,,,0.00,weatherlink.com 1.10,2013-10-30 04:19:00,
2013-10-29 21:34:00,-999.0,-99.9,0.00,North,-999,-999.0,-999.0,-999,-99.99,,,0.00,weatherlink.com 1.10,2013-10-30 04:34:00,
2013-10-29 21:49:00,-999.0,-99.9,0.00,North,-999,-999.0,-999.0,-999,-99.99,,,0.00,weatherlink.com 1.10,2013-10-30 04:49:00,
2013-10-29 22:04:00,-999.0,-99.9,0.00,North,-999,-999.0,-999.0,-999,-99.99,,,0.00,weatherlink.com 1.10,2013-10-30 05:04:00,
2013-10-29 22:19:00,-999.0,-99.9,0.00,North,-999,-999.0,-999.0,-999,-99.99,,,0.00,weatherlink.com 1.10,2013-10-30 05:19:00,
2013-10-29 22:34:00,-999.0,-99.9,0.00,North,-999,-999.0,-999.0,-999,-99.99,,,0.00,weatherlink.com 1.10,2013-10-30 05:34:00,
2013-10-29 22:49:00,-999.0,-99.9,0.00,North,-999,-999.0,-999.0,-999,-99.99,,,0.00,weatherlink.com 1.10,2013-10-30 05:49:00,
2013-10-29 23:04:00,-999.0,-99.9,0.00,North,-999,-999.0,-999.0,-999,-99.99,,,0.00,weatherlink.com 1.10,2013-10-30 06:04:00,
2013-10-29 23:19:00,-999.0,-99.9,0.00,North,-999,-999.0,-999.0,-999,-99.99,,,0.00,weatherlink.com 1.10,2013-10-30 06:19:00,
2013-10-29 23:34:00,-999.0,-99.9,0.00,North,-999,-999.0,-999.0,-999,-99.99,,,0.00,weatherlink.com 1.10,2013-10-30 06:34:00,
2013-10-29 23:49:00,-999.0,-99.9,0.00,North,-999,-999.0,-999.0,-999,-99.99,,,0.00,weatherlink.com 1.10,2013-10-30 06:49:00,